Glenwood Landing, New York
Current Conditions -  °F | °C
As of 4:51 AM on Monday 26 Jan 2015 (Local Time) from KLGA Reporting Station
Overcast Overcast  
Wind Chill: 11°   Ceiling: 3900
Heat Index: 24°   Visibility: 10mi
Dew Point: 10°   Wind: 16mph
Humidity: 55%   Direction: 50°NE
Pressure: 30.02"   Gusts: NA
Location:  40.83°N, 73.64°W
Report Text: KLGA 260951Z 05014KT 10SM OVC039 M04/M12 A3002 RMK AO2 SLP166 T10441122 $
Loading
Personal Weather Stations






























Interactive Weather Map New forecast layout! Learn more

10-Day Weather Forecast

Advertisements
Track Severe Weather on mobile